sensor_id;sensor_type;location;lat;lon;timestamp;temperature;humidity
13346;DHT22;6742;48.036;15.780;2022-09-17T00:00:25;12.80;99.90
13346;DHT22;6742;48.036;15.780;2022-09-17T00:02:52;12.80;99.90
13346;DHT22;6742;48.036;15.780;2022-09-17T00:05:20;12.80;99.90
13346;DHT22;6742;48.036;15.780;2022-09-17T00:07:48;12.80;99.90
13346;DHT22;6742;48.036;15.780;2022-09-17T00:10:20;12.80;99.90
13346;DHT22;6742;48.036;15.780;2022-09-17T00:12:48;12.80;99.90
13346;DHT22;6742;48.036;15.780;2022-09-17T00:15:15;12.70;99.90
13346;DHT22;6742;48.036;15.780;2022-09-17T00:17:42;12.50;99.90
13346;DHT22;6742;48.036;15.780;2022-09-17T00:20:09;12.40;99.90
13346;DHT22;6742;48.036;15.780;2022-09-17T00:22:37;12.40;99.90
13346;DHT22;6742;48.036;15.780;2022-09-17T00:25:05;12.30;99.90
13346;DHT22;6742;48.036;15.780;2022-09-17T00:27:36;12.30;99.90
13346;DHT22;6742;48.036;15.780;2022-09-17T00:30:04;12.40;99.90
13346;DHT22;6742;48.036;15.780;2022-09-17T00:32:31;12.40;99.90
13346;DHT22;6742;48.036;15.780;2022-09-17T00:34:57;12.50;99.90
13346;DHT22;6742;48.036;15.780;2022-09-17T00:37:24;12.50;99.90
13346;DHT22;6742;48.036;15.780;2022-09-17T00:39:51;12.60;99.90
13346;DHT22;6742;48.036;15.780;2022-09-17T00:42:19;12.60;99.90
13346;DHT22;6742;48.036;15.780;2022-09-17T00:44:53;12.70;99.90
13346;DHT22;6742;48.036;15.780;2022-09-17T00:47:24;12.70;99.90
13346;DHT22;6742;48.036;15.780;2022-09-17T00:49:55;12.70;99.90
13346;DHT22;6742;48.036;15.780;2022-09-17T00:52:27;12.70;99.90
13346;DHT22;6742;48.036;15.780;2022-09-17T00:55:02;12.70;99.90
13346;DHT22;6742;48.036;15.780;2022-09-17T00:57:31;12.80;99.90
13346;DHT22;6742;48.036;15.780;2022-09-17T00:59:59;12.70;99.90
13346;DHT22;6742;48.036;15.780;2022-09-17T01:02:27;12.60;99.90
13346;DHT22;6742;48.036;15.780;2022-09-17T01:04:54;12.60;99.90
13346;DHT22;6742;48.036;15.780;2022-09-17T01:07:38;12.50;99.90
13346;DHT22;6742;48.036;15.780;2022-09-17T01:10:16;12.40;99.90
13346;DHT22;6742;48.036;15.780;2022-09-17T01:13:03;12.50;99.90
13346;DHT22;6742;48.036;15.780;2022-09-17T01:15:41;12.50;99.90
13346;DHT22;6742;48.036;15.780;2022-09-17T01:18:25;12.50;99.90
13346;DHT22;6742;48.036;15.780;2022-09-17T01:21:22;12.50;99.90
13346;DHT22;6742;48.036;15.780;2022-09-17T01:27:12;12.50;99.90
13346;DHT22;6742;48.036;15.780;2022-09-17T01:30:00;12.50;99.90
13346;DHT22;6742;48.036;15.780;2022-09-17T01:32:38;12.50;99.90
13346;DHT22;6742;48.036;15.780;2022-09-17T01:35:12;12.50;99.90
13346;DHT22;6742;48.036;15.780;2022-09-17T01:37:47;12.60;99.90
13346;DHT22;6742;48.036;15.780;2022-09-17T01:40:21;12.60;99.90
13346;DHT22;6742;48.036;15.780;2022-09-17T01:42:54;12.60;99.90
13346;DHT22;6742;48.036;15.780;2022-09-17T01:45:26;12.60;99.90
13346;DHT22;6742;48.036;15.780;2022-09-17T01:48:01;12.60;99.90
13346;DHT22;6742;48.036;15.780;2022-09-17T01:50:37;12.50;99.90
13346;DHT22;6742;48.036;15.780;2022-09-17T01:53:09;12.50;99.90
13346;DHT22;6742;48.036;15.780;2022-09-17T01:55:39;12.50;99.90
13346;DHT22;6742;48.036;15.780;2022-09-17T01:58:11;12.50;99.90
13346;DHT22;6742;48.036;15.780;2022-09-17T02:00:41;12.60;99.90
13346;DHT22;6742;48.036;15.780;2022-09-17T02:03:16;12.50;99.90
13346;DHT22;6742;48.036;15.780;2022-09-17T02:05:48;12.40;99.90
13346;DHT22;6742;48.036;15.780;2022-09-17T02:08:18;12.30;99.90
13346;DHT22;6742;48.036;15.780;2022-09-17T02:10:48;12.30;99.90
13346;DHT22;6742;48.036;15.780;2022-09-17T02:13:20;12.20;99.90
13346;DHT22;6742;48.036;15.780;2022-09-17T02:15:51;12.30;99.90
13346;DHT22;6742;48.036;15.780;2022-09-17T02:18:25;12.30;99.90
13346;DHT22;6742;48.036;15.780;2022-09-17T02:20:58;12.30;99.90
13346;DHT22;6742;48.036;15.780;2022-09-17T02:23:33;12.10;99.90
13346;DHT22;6742;48.036;15.780;2022-09-17T02:26:05;12.20;99.90
13346;DHT22;6742;48.036;15.780;2022-09-17T02:28:39;12.20;99.90
13346;DHT22;6742;48.036;15.780;2022-09-17T02:31:08;12.30;99.90
13346;DHT22;6742;48.036;15.780;2022-09-17T02:33:37;12.30;99.90
13346;DHT22;6742;48.036;15.780;2022-09-17T02:36:05;12.40;99.90
13346;DHT22;6742;48.036;15.780;2022-09-17T02:38:32;12.40;99.90
13346;DHT22;6742;48.036;15.780;2022-09-17T02:41:05;12.40;99.90
13346;DHT22;6742;48.036;15.780;2022-09-17T02:43:42;12.40;99.90
13346;DHT22;6742;48.036;15.780;2022-09-17T02:46:29;12.40;99.90
13346;DHT22;6742;48.036;15.780;2022-09-17T02:49:19;12.40;99.90
13346;DHT22;6742;48.036;15.780;2022-09-17T02:51:55;12.40;99.90
13346;DHT22;6742;48.036;15.780;2022-09-17T02:54:29;12.30;99.90
13346;DHT22;6742;48.036;15.780;2022-09-17T02:57:06;12.30;99.90
13346;DHT22;6742;48.036;15.780;2022-09-17T02:59:42;12.20;99.90
13346;DHT22;6742;48.036;15.780;2022-09-17T03:02:18;12.20;99.90
13346;DHT22;6742;48.036;15.780;2022-09-17T03:04:51;12.20;99.90
13346;DHT22;6742;48.036;15.780;2022-09-17T03:07:21;12.10;99.90
13346;DHT22;6742;48.036;15.780;2022-09-17T03:09:48;12.10;99.90
13346;DHT22;6742;48.036;15.780;2022-09-17T03:12:16;12.00;99.90
13346;DHT22;6742;48.036;15.780;2022-09-17T03:14:43;11.90;99.90
13346;DHT22;6742;48.036;15.780;2022-09-17T03:17:10;11.90;99.90
13346;DHT22;6742;48.036;15.780;2022-09-17T03:19:39;11.90;99.90
13346;DHT22;6742;48.036;15.780;2022-09-17T03:22:07;11.90;99.90
13346;DHT22;6742;48.036;15.780;2022-09-17T03:24:34;11.90;99.90
13346;DHT22;6742;48.036;15.780;2022-09-17T03:27:01;11.80;99.90
13346;DHT22;6742;48.036;15.780;2022-09-17T03:29:28;11.80;99.90
13346;DHT22;6742;48.036;15.780;2022-09-17T03:31:55;11.90;99.90
13346;DHT22;6742;48.036;15.780;2022-09-17T03:34:22;11.80;99.90
13346;DHT22;6742;48.036;15.780;2022-09-17T03:36:49;11.80;99.90
13346;DHT22;6742;48.036;15.780;2022-09-17T03:39:18;11.80;99.90
13346;DHT22;6742;48.036;15.780;2022-09-17T03:41:45;11.90;99.90
13346;DHT22;6742;48.036;15.780;2022-09-17T03:44:11;11.90;99.90
13346;DHT22;6742;48.036;15.780;2022-09-17T03:46:40;11.90;99.90
13346;DHT22;6742;48.036;15.780;2022-09-17T03:49:07;11.80;99.90
13346;DHT22;6742;48.036;15.780;2022-09-17T03:51:34;11.90;99.90
13346;DHT22;6742;48.036;15.780;2022-09-17T03:54:01;11.80;99.90
13346;DHT22;6742;48.036;15.780;2022-09-17T03:56:30;11.80;99.90
13346;DHT22;6742;48.036;15.780;2022-09-17T03:58:57;11.70;99.90
13346;DHT22;6742;48.036;15.780;2022-09-17T04:01:24;11.70;99.90
13346;DHT22;6742;48.036;15.780;2022-09-17T04:03:52;11.70;99.90
13346;DHT22;6742;48.036;15.780;2022-09-17T04:06:19;11.70;99.90
13346;DHT22;6742;48.036;15.780;2022-09-17T04:08:46;11.70;99.90
13346;DHT22;6742;48.036;15.780;2022-09-17T04:11:13;11.70;99.90
13346;DHT22;6742;48.036;15.780;2022-09-17T04:13:41;11.70;99.90
13346;DHT22;6742;48.036;15.780;2022-09-17T04:16:08;11.80;99.90
13346;DHT22;6742;48.036;15.780;2022-09-17T04:18:35;11.80;99.90
13346;DHT22;6742;48.036;15.780;2022-09-17T04:21:03;11.80;99.90
13346;DHT22;6742;48.036;15.780;2022-09-17T04:23:30;11.80;99.90
13346;DHT22;6742;48.036;15.780;2022-09-17T04:25:57;11.80;99.90
13346;DHT22;6742;48.036;15.780;2022-09-17T04:28:25;11.80;99.90
13346;DHT22;6742;48.036;15.780;2022-09-17T04:30:53;11.80;99.90
13346;DHT22;6742;48.036;15.780;2022-09-17T04:33:20;11.80;99.90
13346;DHT22;6742;48.036;15.780;2022-09-17T04:35:47;11.80;99.90
13346;DHT22;6742;48.036;15.780;2022-09-17T04:38:14;11.80;99.90
13346;DHT22;6742;48.036;15.780;2022-09-17T04:40:43;11.80;99.90
13346;DHT22;6742;48.036;15.780;2022-09-17T04:43:11;11.70;99.90
13346;DHT22;6742;48.036;15.780;2022-09-17T04:45:38;11.70;99.90
13346;DHT22;6742;48.036;15.780;2022-09-17T04:48:06;11.70;99.90
13346;DHT22;6742;48.036;15.780;2022-09-17T04:50:33;11.70;99.90
13346;DHT22;6742;48.036;15.780;2022-09-17T04:53:00;11.70;99.90
13346;DHT22;6742;48.036;15.780;2022-09-17T04:55:28;11.80;99.90
13346;DHT22;6742;48.036;15.780;2022-09-17T04:57:56;11.80;99.90
13346;DHT22;6742;48.036;15.780;2022-09-17T05:00:23;11.70;99.90
13346;DHT22;6742;48.036;15.780;2022-09-17T05:02:52;11.70;99.90
13346;DHT22;6742;48.036;15.780;2022-09-17T05:05:22;11.80;99.90
13346;DHT22;6742;48.036;15.780;2022-09-17T05:07:49;11.70;99.90
13346;DHT22;6742;48.036;15.780;2022-09-17T05:10:18;11.70;99.90
13346;DHT22;6742;48.036;15.780;2022-09-17T05:12:47;11.70;99.90
13346;DHT22;6742;48.036;15.780;2022-09-17T05:15:15;11.70;99.90
13346;DHT22;6742;48.036;15.780;2022-09-17T05:17:45;11.70;99.90
13346;DHT22;6742;48.036;15.780;2022-09-17T05:20:13;11.60;99.90
13346;DHT22;6742;48.036;15.780;2022-09-17T05:22:43;11.60;99.90
13346;DHT22;6742;48.036;15.780;2022-09-17T05:25:11;11.70;99.90
13346;DHT22;6742;48.036;15.780;2022-09-17T05:27:39;11.80;99.90
13346;DHT22;6742;48.036;15.780;2022-09-17T05:30:07;11.70;99.90
13346;DHT22;6742;48.036;15.780;2022-09-17T05:32:34;11.80;99.90
13346;DHT22;6742;48.036;15.780;2022-09-17T05:35:02;11.80;99.90
13346;DHT22;6742;48.036;15.780;2022-09-17T05:37:29;11.80;99.90
13346;DHT22;6742;48.036;15.780;2022-09-17T05:39:57;11.80;99.90
13346;DHT22;6742;48.036;15.780;2022-09-17T05:42:24;11.70;99.90
13346;DHT22;6742;48.036;15.780;2022-09-17T05:44:51;11.70;99.90
13346;DHT22;6742;48.036;15.780;2022-09-17T05:47:18;11.80;99.90
13346;DHT22;6742;48.036;15.780;2022-09-17T05:49:45;11.80;99.90
13346;DHT22;6742;48.036;15.780;2022-09-17T05:52:12;11.90;99.90
13346;DHT22;6742;48.036;15.780;2022-09-17T05:54:39;11.80;99.90
13346;DHT22;6742;48.036;15.780;2022-09-17T05:57:07;11.80;99.90
13346;DHT22;6742;48.036;15.780;2022-09-17T05:59:34;11.90;99.90
13346;DHT22;6742;48.036;15.780;2022-09-17T06:02:01;11.90;99.90
13346;DHT22;6742;48.036;15.780;2022-09-17T06:04:28;11.80;99.90
13346;DHT22;6742;48.036;15.780;2022-09-17T06:06:55;11.70;99.90
13346;DHT22;6742;48.036;15.780;2022-09-17T06:09:21;11.70;99.90
13346;DHT22;6742;48.036;15.780;2022-09-17T06:11:48;11.70;99.90
13346;DHT22;6742;48.036;15.780;2022-09-17T06:14:17;11.70;99.90
13346;DHT22;6742;48.036;15.780;2022-09-17T06:16:44;11.70;99.90
13346;DHT22;6742;48.036;15.780;2022-09-17T06:19:10;11.80;99.90
13346;DHT22;6742;48.036;15.780;2022-09-17T06:21:37;11.80;99.90
13346;DHT22;6742;48.036;15.780;2022-09-17T06:24:04;11.70;99.90
13346;DHT22;6742;48.036;15.780;2022-09-17T06:26:31;11.60;99.90
13346;DHT22;6742;48.036;15.780;2022-09-17T06:31:27;11.60;99.90
13346;DHT22;6742;48.036;15.780;2022-09-17T06:33:55;11.60;99.90
13346;DHT22;6742;48.036;15.780;2022-09-17T06:36:22;11.50;99.90
13346;DHT22;6742;48.036;15.780;2022-09-17T06:38:49;11.50;99.90
13346;DHT22;6742;48.036;15.780;2022-09-17T06:43:44;11.50;99.90
13346;DHT22;6742;48.036;15.780;2022-09-17T06:46:11;11.50;99.90
13346;DHT22;6742;48.036;15.780;2022-09-17T06:48:39;11.50;99.90
13346;DHT22;6742;48.036;15.780;2022-09-17T06:51:07;11.40;99.90
13346;DHT22;6742;48.036;15.780;2022-09-17T06:53:35;11.50;99.90
13346;DHT22;6742;48.036;15.780;2022-09-17T06:56:03;11.50;99.90
13346;DHT22;6742;48.036;15.780;2022-09-17T06:58:31;11.50;99.90
13346;DHT22;6742;48.036;15.780;2022-09-17T07:00:59;11.40;99.90
13346;DHT22;6742;48.036;15.780;2022-09-17T07:03:27;11.40;99.90
13346;DHT22;6742;48.036;15.780;2022-09-17T07:05:58;11.40;99.90
13346;DHT22;6742;48.036;15.780;2022-09-17T07:08:25;11.40;99.90
13346;DHT22;6742;48.036;15.780;2022-09-17T07:10:54;11.50;99.90
13346;DHT22;6742;48.036;15.780;2022-09-17T07:13:21;11.40;99.90
13346;DHT22;6742;48.036;15.780;2022-09-17T07:15:53;11.50;99.90
13346;DHT22;6742;48.036;15.780;2022-09-17T07:18:20;11.50;99.90
13346;DHT22;6742;48.036;15.780;2022-09-17T07:20:52;11.50;99.90
13346;DHT22;6742;48.036;15.780;2022-09-17T07:23:21;11.50;99.90
13346;DHT22;6742;48.036;15.780;2022-09-17T07:25:52;11.40;99.90
13346;DHT22;6742;48.036;15.780;2022-09-17T07:28:19;11.40;99.90
13346;DHT22;6742;48.036;15.780;2022-09-17T07:33:14;11.40;99.90
13346;DHT22;6742;48.036;15.780;2022-09-17T07:35:42;11.50;99.90
13346;DHT22;6742;48.036;15.780;2022-09-17T07:38:09;11.50;99.90
13346;DHT22;6742;48.036;15.780;2022-09-17T07:40:37;11.40;99.90
13346;DHT22;6742;48.036;15.780;2022-09-17T07:43:04;11.40;99.90
13346;DHT22;6742;48.036;15.780;2022-09-17T07:45:31;11.40;99.90
13346;DHT22;6742;48.036;15.780;2022-09-17T07:47:58;11.50;99.90
13346;DHT22;6742;48.036;15.780;2022-09-17T07:50:25;11.60;99.90
13346;DHT22;6742;48.036;15.780;2022-09-17T07:52:52;11.50;99.90
13346;DHT22;6742;48.036;15.780;2022-09-17T07:55:22;11.50;99.90
13346;DHT22;6742;48.036;15.780;2022-09-17T07:57:51;11.50;99.90
13346;DHT22;6742;48.036;15.780;2022-09-17T08:00:18;11.50;99.90
13346;DHT22;6742;48.036;15.780;2022-09-17T08:02:52;11.50;99.90
13346;DHT22;6742;48.036;15.780;2022-09-17T08:05:21;11.60;99.90
13346;DHT22;6742;48.036;15.780;2022-09-17T08:07:49;11.50;99.90
13346;DHT22;6742;48.036;15.780;2022-09-17T08:10:16;11.50;99.90
13346;DHT22;6742;48.036;15.780;2022-09-17T08:12:46;11.50;99.90
13346;DHT22;6742;48.036;15.780;2022-09-17T08:15:15;11.50;99.90
13346;DHT22;6742;48.036;15.780;2022-09-17T08:17:42;11.50;99.90
13346;DHT22;6742;48.036;15.780;2022-09-17T08:20:10;11.50;99.90
13346;DHT22;6742;48.036;15.780;2022-09-17T08:22:37;11.40;99.90
13346;DHT22;6742;48.036;15.780;2022-09-17T08:25:05;11.40;99.90
13346;DHT22;6742;48.036;15.780;2022-09-17T08:27:32;11.40;99.90
13346;DHT22;6742;48.036;15.780;2022-09-17T08:29:59;11.40;99.90
13346;DHT22;6742;48.036;15.780;2022-09-17T08:32:28;11.50;99.90
13346;DHT22;6742;48.036;15.780;2022-09-17T08:34:55;11.40;99.90
13346;DHT22;6742;48.036;15.780;2022-09-17T08:37:22;11.50;99.90
13346;DHT22;6742;48.036;15.780;2022-09-17T08:39:49;11.50;99.90
13346;DHT22;6742;48.036;15.780;2022-09-17T08:42:23;11.50;99.90
13346;DHT22;6742;48.036;15.780;2022-09-17T08:44:55;11.50;99.90
13346;DHT22;6742;48.036;15.780;2022-09-17T08:47:26;11.50;99.90
13346;DHT22;6742;48.036;15.780;2022-09-17T08:49:56;11.40;99.90
13346;DHT22;6742;48.036;15.780;2022-09-17T08:55:36;11.40;99.90
13346;DHT22;6742;48.036;15.780;2022-09-17T09:01:07;11.50;99.90
13346;DHT22;6742;48.036;15.780;2022-09-17T09:03:52;11.50;99.90
13346;DHT22;6742;48.036;15.780;2022-09-17T09:06:30;11.40;99.90
13346;DHT22;6742;48.036;15.780;2022-09-17T09:09:00;11.40;99.90
13346;DHT22;6742;48.036;15.780;2022-09-17T09:11:29;11.50;99.90
13346;DHT22;6742;48.036;15.780;2022-09-17T09:14:03;11.50;99.90
13346;DHT22;6742;48.036;15.780;2022-09-17T09:16:32;11.30;99.90
13346;DHT22;6742;48.036;15.780;2022-09-17T09:19:11;11.40;99.90
13346;DHT22;6742;48.036;15.780;2022-09-17T09:21:51;11.40;99.90
13346;DHT22;6742;48.036;15.780;2022-09-17T09:24:24;11.40;99.90
13346;DHT22;6742;48.036;15.780;2022-09-17T09:26:55;11.30;99.90
13346;DHT22;6742;48.036;15.780;2022-09-17T09:29:36;11.40;99.90
13346;DHT22;6742;48.036;15.780;2022-09-17T09:32:14;11.50;99.90
13346;DHT22;6742;48.036;15.780;2022-09-17T09:34:45;11.40;99.90
13346;DHT22;6742;48.036;15.780;2022-09-17T09:37:18;11.50;99.90
13346;DHT22;6742;48.036;15.780;2022-09-17T09:39:48;11.50;99.90
13346;DHT22;6742;48.036;15.780;2022-09-17T09:42:22;11.50;99.90
13346;DHT22;6742;48.036;15.780;2022-09-17T09:44:53;11.50;99.90
13346;DHT22;6742;48.036;15.780;2022-09-17T09:47:32;11.40;99.90
13346;DHT22;6742;48.036;15.780;2022-09-17T09:50:14;11.50;99.90
13346;DHT22;6742;48.036;15.780;2022-09-17T09:52:54;11.40;99.90
13346;DHT22;6742;48.036;15.780;2022-09-17T09:55:54;11.40;99.90
13346;DHT22;6742;48.036;15.780;2022-09-17T09:58:30;11.30;99.90
13346;DHT22;6742;48.036;15.780;2022-09-17T10:00:59;11.30;99.90
13346;DHT22;6742;48.036;15.780;2022-09-17T10:03:28;11.40;99.90
13346;DHT22;6742;48.036;15.780;2022-09-17T10:05:58;11.40;99.90
13346;DHT22;6742;48.036;15.780;2022-09-17T10:08:28;11.40;99.90
13346;DHT22;6742;48.036;15.780;2022-09-17T10:10:57;11.40;99.90
13346;DHT22;6742;48.036;15.780;2022-09-17T10:13:25;11.40;99.90
13346;DHT22;6742;48.036;15.780;2022-09-17T10:15:52;11.40;99.90
13346;DHT22;6742;48.036;15.780;2022-09-17T10:18:21;11.40;99.90
13346;DHT22;6742;48.036;15.780;2022-09-17T10:20:53;11.40;99.90
13346;DHT22;6742;48.036;15.780;2022-09-17T10:23:21;11.40;99.90
13346;DHT22;6742;48.036;15.780;2022-09-17T10:25:50;11.30;99.90
13346;DHT22;6742;48.036;15.780;2022-09-17T10:28:38;11.40;99.90
13346;DHT22;6742;48.036;15.780;2022-09-17T10:31:09;11.50;99.90
13346;DHT22;6742;48.036;15.780;2022-09-17T10:33:39;11.60;99.90
13346;DHT22;6742;48.036;15.780;2022-09-17T10:36:15;11.60;99.90
13346;DHT22;6742;48.036;15.780;2022-09-17T10:38:44;11.60;99.90
13346;DHT22;6742;48.036;15.780;2022-09-17T10:41:15;11.60;99.90
13346;DHT22;6742;48.036;15.780;2022-09-17T10:43:43;11.60;99.90
13346;DHT22;6742;48.036;15.780;2022-09-17T10:46:18;11.60;99.90
13346;DHT22;6742;48.036;15.780;2022-09-17T10:48:58;11.60;99.90
13346;DHT22;6742;48.036;15.780;2022-09-17T10:51:31;11.60;99.90
13346;DHT22;6742;48.036;15.780;2022-09-17T10:54:30;11.60;99.90
13346;DHT22;6742;48.036;15.780;2022-09-17T10:57:06;11.70;99.90
13346;DHT22;6742;48.036;15.780;2022-09-17T10:59:58;11.60;99.90
13346;DHT22;6742;48.036;15.780;2022-09-17T11:05:49;11.50;99.90
13346;DHT22;6742;48.036;15.780;2022-09-17T11:08:28;11.50;99.90
13346;DHT22;6742;48.036;15.780;2022-09-17T11:11:03;11.50;99.90
13346;DHT22;6742;48.036;15.780;2022-09-17T11:13:38;11.50;99.90
13346;DHT22;6742;48.036;15.780;2022-09-17T11:16:14;11.50;99.90
13346;DHT22;6742;48.036;15.780;2022-09-17T11:18:46;11.40;99.90
13346;DHT22;6742;48.036;15.780;2022-09-17T11:21:27;11.30;99.90
13346;DHT22;6742;48.036;15.780;2022-09-17T11:24:20;11.30;99.90
13346;DHT22;6742;48.036;15.780;2022-09-17T11:26:58;11.30;99.90
13346;DHT22;6742;48.036;15.780;2022-09-17T11:29:49;11.20;99.90
13346;DHT22;6742;48.036;15.780;2022-09-17T11:32:36;11.30;99.90
13346;DHT22;6742;48.036;15.780;2022-09-17T11:35:08;11.30;99.90
13346;DHT22;6742;48.036;15.780;2022-09-17T11:37:40;11.30;99.90
13346;DHT22;6742;48.036;15.780;2022-09-17T11:40:16;11.40;99.90
13346;DHT22;6742;48.036;15.780;2022-09-17T11:42:47;11.40;99.90
13346;DHT22;6742;48.036;15.780;2022-09-17T11:45:19;11.50;99.90
13346;DHT22;6742;48.036;15.780;2022-09-17T11:47:53;11.40;99.90
13346;DHT22;6742;48.036;15.780;2022-09-17T11:50:27;11.40;99.90
13346;DHT22;6742;48.036;15.780;2022-09-17T11:53:02;11.40;99.90
13346;DHT22;6742;48.036;15.780;2022-09-17T11:55:32;11.40;99.90
13346;DHT22;6742;48.036;15.780;2022-09-17T11:58:09;11.40;99.90
13346;DHT22;6742;48.036;15.780;2022-09-17T12:00:44;11.50;99.90
13346;DHT22;6742;48.036;15.780;2022-09-17T12:03:17;11.50;99.90
13346;DHT22;6742;48.036;15.780;2022-09-17T12:05:48;11.50;99.90
13346;DHT22;6742;48.036;15.780;2022-09-17T12:08:20;11.50;99.90
13346;DHT22;6742;48.036;15.780;2022-09-17T12:10:51;11.40;99.90
13346;DHT22;6742;48.036;15.780;2022-09-17T12:13:29;11.40;99.90
13346;DHT22;6742;48.036;15.780;2022-09-17T12:16:10;11.40;99.90
13346;DHT22;6742;48.036;15.780;2022-09-17T12:18:48;11.40;99.90
13346;DHT22;6742;48.036;15.780;2022-09-17T12:21:19;11.40;99.90
13346;DHT22;6742;48.036;15.780;2022-09-17T12:23:51;11.40;99.90
13346;DHT22;6742;48.036;15.780;2022-09-17T12:26:52;11.40;99.90
13346;DHT22;6742;48.036;15.780;2022-09-17T12:29:34;11.40;99.90
13346;DHT22;6742;48.036;15.780;2022-09-17T12:32:18;11.40;99.90
13346;DHT22;6742;48.036;15.780;2022-09-17T12:34:55;11.40;99.90
13346;DHT22;6742;48.036;15.780;2022-09-17T12:37:26;11.40;99.90
13346;DHT22;6742;48.036;15.780;2022-09-17T12:40:18;11.30;99.90
13346;DHT22;6742;48.036;15.780;2022-09-17T12:43:07;11.20;99.90
13346;DHT22;6742;48.036;15.780;2022-09-17T12:45:45;11.20;99.90
13346;DHT22;6742;48.036;15.780;2022-09-17T12:48:46;11.20;99.90
13346;DHT22;6742;48.036;15.780;2022-09-17T12:51:36;11.10;99.90
13346;DHT22;6742;48.036;15.780;2022-09-17T12:54:19;11.20;99.90
13346;DHT22;6742;48.036;15.780;2022-09-17T12:56:56;11.20;99.90
13346;DHT22;6742;48.036;15.780;2022-09-17T12:59:29;11.20;99.90
13346;DHT22;6742;48.036;15.780;2022-09-17T13:01:59;11.30;99.90
13346;DHT22;6742;48.036;15.780;2022-09-17T13:10:40;11.20;99.90
13346;DHT22;6742;48.036;15.780;2022-09-17T13:13:27;11.20;99.90
13346;DHT22;6742;48.036;15.780;2022-09-17T13:16:03;11.10;99.90
13346;DHT22;6742;48.036;15.780;2022-09-17T13:18:37;11.20;99.90
13346;DHT22;6742;48.036;15.780;2022-09-17T13:21:11;11.20;99.90
13346;DHT22;6742;48.036;15.780;2022-09-17T13:23:41;11.20;99.90
13346;DHT22;6742;48.036;15.780;2022-09-17T13:26:10;11.20;99.90
13346;DHT22;6742;48.036;15.780;2022-09-17T13:28:43;11.30;99.90
13346;DHT22;6742;48.036;15.780;2022-09-17T13:31:11;11.50;99.90
13346;DHT22;6742;48.036;15.780;2022-09-17T13:33:56;11.50;99.90
13346;DHT22;6742;48.036;15.780;2022-09-17T13:36:47;11.50;99.90
13346;DHT22;6742;48.036;15.780;2022-09-17T13:39:34;11.50;99.90
13346;DHT22;6742;48.036;15.780;2022-09-17T13:42:05;11.30;99.90
13346;DHT22;6742;48.036;15.780;2022-09-17T13:44:36;11.30;99.90
13346;DHT22;6742;48.036;15.780;2022-09-17T13:47:23;11.30;99.90
13346;DHT22;6742;48.036;15.780;2022-09-17T13:49:54;11.40;99.90
13346;DHT22;6742;48.036;15.780;2022-09-17T13:52:36;11.40;99.90
13346;DHT22;6742;48.036;15.780;2022-09-17T13:55:05;11.50;99.90
13346;DHT22;6742;48.036;15.780;2022-09-17T13:57:43;11.40;99.90
13346;DHT22;6742;48.036;15.780;2022-09-17T14:03:52;11.40;99.90
13346;DHT22;6742;48.036;15.780;2022-09-17T14:06:49;11.40;99.90
13346;DHT22;6742;48.036;15.780;2022-09-17T14:09:31;11.40;99.90
13346;DHT22;6742;48.036;15.780;2022-09-17T14:11:59;11.40;99.90
13346;DHT22;6742;48.036;15.780;2022-09-17T14:14:45;11.40;99.90
13346;DHT22;6742;48.036;15.780;2022-09-17T14:20:24;11.40;99.90
13346;DHT22;6742;48.036;15.780;2022-09-17T14:22:56;11.40;99.90
13346;DHT22;6742;48.036;15.780;2022-09-17T14:25:31;11.40;99.90
13346;DHT22;6742;48.036;15.780;2022-09-17T14:28:02;11.40;99.90
13346;DHT22;6742;48.036;15.780;2022-09-17T14:30:32;11.30;99.90
13346;DHT22;6742;48.036;15.780;2022-09-17T14:33:05;11.30;99.90
13346;DHT22;6742;48.036;15.780;2022-09-17T14:35:36;11.30;99.90
13346;DHT22;6742;48.036;15.780;2022-09-17T14:38:09;11.20;99.90
13346;DHT22;6742;48.036;15.780;2022-09-17T14:40:43;11.20;99.90
13346;DHT22;6742;48.036;15.780;2022-09-17T14:43:17;11.20;99.90
13346;DHT22;6742;48.036;15.780;2022-09-17T14:45:48;11.10;99.90
13346;DHT22;6742;48.036;15.780;2022-09-17T14:48:18;11.10;99.90
13346;DHT22;6742;48.036;15.780;2022-09-17T14:50:46;11.00;99.90
13346;DHT22;6742;48.036;15.780;2022-09-17T14:53:15;11.10;99.90
13346;DHT22;6742;48.036;15.780;2022-09-17T14:55:46;11.10;99.90
13346;DHT22;6742;48.036;15.780;2022-09-17T14:58:27;11.00;99.90
13346;DHT22;6742;48.036;15.780;2022-09-17T15:00:56;11.00;99.90
13346;DHT22;6742;48.036;15.780;2022-09-17T15:03:23;11.10;99.90
13346;DHT22;6742;48.036;15.780;2022-09-17T15:05:51;11.10;99.90
13346;DHT22;6742;48.036;15.780;2022-09-17T15:08:19;11.10;99.90
13346;DHT22;6742;48.036;15.780;2022-09-17T15:10:56;11.10;99.90
13346;DHT22;6742;48.036;15.780;2022-09-17T15:13:27;11.00;99.90
13346;DHT22;6742;48.036;15.780;2022-09-17T15:16:02;11.10;99.90
13346;DHT22;6742;48.036;15.780;2022-09-17T15:18:37;11.10;99.90
13346;DHT22;6742;48.036;15.780;2022-09-17T15:21:15;11.10;99.90
13346;DHT22;6742;48.036;15.780;2022-09-17T15:23:43;11.00;99.90
13346;DHT22;6742;48.036;15.780;2022-09-17T15:26:12;11.00;99.90
13346;DHT22;6742;48.036;15.780;2022-09-17T15:28:43;11.10;99.90
13346;DHT22;6742;48.036;15.780;2022-09-17T15:31:15;11.10;99.90
13346;DHT22;6742;48.036;15.780;2022-09-17T15:33:43;11.00;99.90
13346;DHT22;6742;48.036;15.780;2022-09-17T15:36:18;10.90;99.90
13346;DHT22;6742;48.036;15.780;2022-09-17T15:38:46;10.90;99.90
13346;DHT22;6742;48.036;15.780;2022-09-17T15:41:30;10.90;99.90
13346;DHT22;6742;48.036;15.780;2022-09-17T15:44:14;10.90;99.90
13346;DHT22;6742;48.036;15.780;2022-09-17T15:46:46;10.90;99.90
13346;DHT22;6742;48.036;15.780;2022-09-17T15:49:30;10.90;99.90
13346;DHT22;6742;48.036;15.780;2022-09-17T15:52:21;10.80;99.90
13346;DHT22;6742;48.036;15.780;2022-09-17T15:54:50;10.80;99.90
13346;DHT22;6742;48.036;15.780;2022-09-17T15:57:21;10.70;99.90
13346;DHT22;6742;48.036;15.780;2022-09-17T15:59:48;10.70;99.90
13346;DHT22;6742;48.036;15.780;2022-09-17T16:02:25;10.70;99.90
13346;DHT22;6742;48.036;15.780;2022-09-17T16:08:20;10.60;99.90
13346;DHT22;6742;48.036;15.780;2022-09-17T16:10:50;10.50;99.90
13346;DHT22;6742;48.036;15.780;2022-09-17T16:13:19;10.60;99.90
13346;DHT22;6742;48.036;15.780;2022-09-17T16:15:46;10.60;99.90
13346;DHT22;6742;48.036;15.780;2022-09-17T16:18:14;10.50;99.90
13346;DHT22;6742;48.036;15.780;2022-09-17T16:20:44;10.40;99.90
13346;DHT22;6742;48.036;15.780;2022-09-17T16:23:10;10.50;99.90
13346;DHT22;6742;48.036;15.780;2022-09-17T16:25:38;10.40;99.90
13346;DHT22;6742;48.036;15.780;2022-09-17T16:28:10;10.30;99.90
13346;DHT22;6742;48.036;15.780;2022-09-17T16:30:43;10.30;99.90
13346;DHT22;6742;48.036;15.780;2022-09-17T16:33:12;10.30;99.90
13346;DHT22;6742;48.036;15.780;2022-09-17T16:35:40;10.30;99.90